sensor_id;sensor_type;location;lat;lon;timestamp;P1;durP1;ratioP1;P2;durP2;ratioP2
49548;SDS011;35450;44.518;7.466;2023-02-01T00:00:32;15.55;;;7.75;;
49548;SDS011;35450;44.518;7.466;2023-02-01T00:03:38;15.45;;;6.68;;
49548;SDS011;35450;44.518;7.466;2023-02-01T00:06:41;11.80;;;6.65;;
49548;SDS011;35450;44.518;7.466;2023-02-01T00:09:46;12.55;;;6.78;;
49548;SDS011;35450;44.518;7.466;2023-02-01T00:12:50;11.30;;;6.22;;
49548;SDS011;35450;44.518;7.466;2023-02-01T00:15:53;9.57;;;5.47;;
49548;SDS011;35450;44.518;7.466;2023-02-01T00:19:04;12.05;;;6.47;;
49548;SDS011;35450;44.518;7.466;2023-02-01T00:25:14;11.13;;;5.63;;
49548;SDS011;35450;44.518;7.466;2023-02-01T00:28:18;9.60;;;6.00;;
49548;SDS011;35450;44.518;7.466;2023-02-01T00:31:22;11.98;;;5.88;;
49548;SDS011;35450;44.518;7.466;2023-02-01T00:34:27;10.45;;;5.90;;
49548;SDS011;35450;44.518;7.466;2023-02-01T00:37:31;11.48;;;5.53;;
49548;SDS011;35450;44.518;7.466;2023-02-01T00:40:34;11.73;;;4.88;;
49548;SDS011;35450;44.518;7.466;2023-02-01T00:43:39;10.00;;;5.60;;
49548;SDS011;35450;44.518;7.466;2023-02-01T00:46:43;8.77;;;5.07;;
49548;SDS011;35450;44.518;7.466;2023-02-01T00:49:47;10.20;;;4.18;;
49548;SDS011;35450;44.518;7.466;2023-02-01T00:52:51;8.85;;;4.80;;
49548;SDS011;35450;44.518;7.466;2023-02-01T00:55:55;8.43;;;4.80;;
49548;SDS011;35450;44.518;7.466;2023-02-01T00:59:00;13.02;;;4.57;;
49548;SDS011;35450;44.518;7.466;2023-02-01T01:02:03;14.98;;;5.07;;
49548;SDS011;35450;44.518;7.466;2023-02-01T01:05:07;8.93;;;4.15;;
49548;SDS011;35450;44.518;7.466;2023-02-01T01:08:11;5.75;;;3.33;;
49548;SDS011;35450;44.518;7.466;2023-02-01T01:11:17;4.43;;;2.50;;
49548;SDS011;35450;44.518;7.466;2023-02-01T01:14:23;8.68;;;3.15;;
49548;SDS011;35450;44.518;7.466;2023-02-01T01:17:28;6.82;;;3.15;;
49548;SDS011;35450;44.518;7.466;2023-02-01T01:20:35;7.88;;;3.30;;
49548;SDS011;35450;44.518;7.466;2023-02-01T01:23:41;8.65;;;4.72;;
49548;SDS011;35450;44.518;7.466;2023-02-01T01:26:47;7.93;;;4.35;;
49548;SDS011;35450;44.518;7.466;2023-02-01T01:29:50;5.75;;;3.40;;
49548;SDS011;35450;44.518;7.466;2023-02-01T01:32:55;9.50;;;3.45;;
49548;SDS011;35450;44.518;7.466;2023-02-01T01:35:59;8.07;;;4.00;;
49548;SDS011;35450;44.518;7.466;2023-02-01T01:39:03;7.13;;;3.67;;
49548;SDS011;35450;44.518;7.466;2023-02-01T01:42:09;8.10;;;3.75;;
49548;SDS011;35450;44.518;7.466;2023-02-01T01:45:28;8.73;;;4.15;;
49548;SDS011;35450;44.518;7.466;2023-02-01T01:48:34;6.78;;;4.32;;
49548;SDS011;35450;44.518;7.466;2023-02-01T01:51:48;7.35;;;4.40;;
49548;SDS011;35450;44.518;7.466;2023-02-01T01:54:58;6.80;;;3.83;;
49548;SDS011;35450;44.518;7.466;2023-02-01T01:58:07;9.38;;;4.88;;
49548;SDS011;35450;44.518;7.466;2023-02-01T02:01:14;10.15;;;5.07;;
49548;SDS011;35450;44.518;7.466;2023-02-01T02:04:19;9.00;;;3.58;;
49548;SDS011;35450;44.518;7.466;2023-02-01T02:07:28;6.18;;;3.28;;
49548;SDS011;35450;44.518;7.466;2023-02-01T02:10:36;9.73;;;3.10;;
49548;SDS011;35450;44.518;7.466;2023-02-01T02:13:59;6.30;;;2.88;;
49548;SDS011;35450;44.518;7.466;2023-02-01T02:27:18;5.88;;;2.83;;
49548;SDS011;35450;44.518;7.466;2023-02-01T02:46:48;4.57;;;2.60;;
49548;SDS011;35450;44.518;7.466;2023-02-01T02:54:09;6.20;;;3.03;;
49548;SDS011;35450;44.518;7.466;2023-02-01T02:57:39;11.85;;;3.63;;
49548;SDS011;35450;44.518;7.466;2023-02-01T03:01:04;4.63;;;2.60;;
49548;SDS011;35450;44.518;7.466;2023-02-01T03:04:27;5.88;;;2.45;;
49548;SDS011;35450;44.518;7.466;2023-02-01T03:11:10;5.43;;;2.47;;
49548;SDS011;35450;44.518;7.466;2023-02-01T03:14:17;6.95;;;2.97;;
49548;SDS011;35450;44.518;7.466;2023-02-01T03:17:26;3.85;;;2.22;;
49548;SDS011;35450;44.518;7.466;2023-02-01T03:20:37;3.90;;;2.30;;
49548;SDS011;35450;44.518;7.466;2023-02-01T03:23:46;5.55;;;2.25;;
49548;SDS011;35450;44.518;7.466;2023-02-01T03:26:55;5.82;;;2.50;;
49548;SDS011;35450;44.518;7.466;2023-02-01T03:33:29;3.90;;;2.17;;
49548;SDS011;35450;44.518;7.466;2023-02-01T03:36:46;5.35;;;2.65;;
49548;SDS011;35450;44.518;7.466;2023-02-01T03:39:59;5.22;;;3.28;;
49548;SDS011;35450;44.518;7.466;2023-02-01T03:43:09;5.20;;;2.47;;
49548;SDS011;35450;44.518;7.466;2023-02-01T03:46:24;4.22;;;2.13;;
49548;SDS011;35450;44.518;7.466;2023-02-01T03:49:38;5.30;;;2.63;;
49548;SDS011;35450;44.518;7.466;2023-02-01T03:52:54;5.13;;;2.50;;
49548;SDS011;35450;44.518;7.466;2023-02-01T03:56:03;4.32;;;2.60;;
49548;SDS011;35450;44.518;7.466;2023-02-01T03:59:08;5.53;;;3.05;;
49548;SDS011;35450;44.518;7.466;2023-02-01T04:02:13;9.18;;;2.92;;
49548;SDS011;35450;44.518;7.466;2023-02-01T04:05:17;6.50;;;2.80;;
49548;SDS011;35450;44.518;7.466;2023-02-01T04:08:29;6.20;;;2.70;;
49548;SDS011;35450;44.518;7.466;2023-02-01T04:11:33;6.95;;;3.33;;
49548;SDS011;35450;44.518;7.466;2023-02-01T04:14:37;8.02;;;3.53;;
49548;SDS011;35450;44.518;7.466;2023-02-01T04:17:41;5.68;;;3.75;;
49548;SDS011;35450;44.518;7.466;2023-02-01T04:20:45;8.82;;;3.97;;
49548;SDS011;35450;44.518;7.466;2023-02-01T04:23:49;8.30;;;3.90;;
49548;SDS011;35450;44.518;7.466;2023-02-01T04:26:53;8.10;;;4.78;;
49548;SDS011;35450;44.518;7.466;2023-02-01T04:29:57;9.88;;;4.82;;
49548;SDS011;35450;44.518;7.466;2023-02-01T04:33:01;15.35;;;5.15;;
49548;SDS011;35450;44.518;7.466;2023-02-01T04:36:09;6.95;;;4.15;;
49548;SDS011;35450;44.518;7.466;2023-02-01T04:39:12;8.23;;;4.38;;
49548;SDS011;35450;44.518;7.466;2023-02-01T04:42:16;8.05;;;4.78;;
49548;SDS011;35450;44.518;7.466;2023-02-01T04:45:20;12.10;;;7.10;;
49548;SDS011;35450;44.518;7.466;2023-02-01T04:48:24;11.50;;;4.85;;
49548;SDS011;35450;44.518;7.466;2023-02-01T04:51:28;10.52;;;4.57;;
49548;SDS011;35450;44.518;7.466;2023-02-01T04:54:33;10.35;;;5.63;;
49548;SDS011;35450;44.518;7.466;2023-02-01T04:57:37;8.60;;;4.55;;
49548;SDS011;35450;44.518;7.466;2023-02-01T05:00:43;8.20;;;4.78;;
49548;SDS011;35450;44.518;7.466;2023-02-01T05:03:48;9.35;;;4.82;;
49548;SDS011;35450;44.518;7.466;2023-02-01T05:06:52;9.07;;;4.47;;
49548;SDS011;35450;44.518;7.466;2023-02-01T05:09:56;17.02;;;5.05;;
49548;SDS011;35450;44.518;7.466;2023-02-01T05:13:00;10.07;;;5.38;;
49548;SDS011;35450;44.518;7.466;2023-02-01T05:16:22;9.38;;;5.07;;
49548;SDS011;35450;44.518;7.466;2023-02-01T05:19:26;9.60;;;4.40;;
49548;SDS011;35450;44.518;7.466;2023-02-01T05:22:30;8.88;;;4.80;;
49548;SDS011;35450;44.518;7.466;2023-02-01T05:25:34;13.48;;;5.57;;
49548;SDS011;35450;44.518;7.466;2023-02-01T05:28:37;9.85;;;6.10;;
49548;SDS011;35450;44.518;7.466;2023-02-01T05:31:42;12.38;;;6.82;;
49548;SDS011;35450;44.518;7.466;2023-02-01T05:34:48;10.45;;;5.93;;
49548;SDS011;35450;44.518;7.466;2023-02-01T05:37:52;11.20;;;6.15;;
49548;SDS011;35450;44.518;7.466;2023-02-01T05:40:56;13.00;;;6.50;;
49548;SDS011;35450;44.518;7.466;2023-02-01T05:44:00;9.77;;;6.07;;
49548;SDS011;35450;44.518;7.466;2023-02-01T05:47:04;13.68;;;6.57;;
49548;SDS011;35450;44.518;7.466;2023-02-01T05:50:08;13.30;;;6.70;;
49548;SDS011;35450;44.518;7.466;2023-02-01T05:53:13;11.38;;;5.93;;
49548;SDS011;35450;44.518;7.466;2023-02-01T05:56:17;14.27;;;6.82;;
49548;SDS011;35450;44.518;7.466;2023-02-01T05:59:21;16.77;;;6.38;;
49548;SDS011;35450;44.518;7.466;2023-02-01T06:02:25;13.05;;;6.25;;
49548;SDS011;35450;44.518;7.466;2023-02-01T06:05:29;19.77;;;7.68;;
49548;SDS011;35450;44.518;7.466;2023-02-01T06:08:33;12.45;;;6.55;;
49548;SDS011;35450;44.518;7.466;2023-02-01T06:11:37;17.60;;;7.10;;
49548;SDS011;35450;44.518;7.466;2023-02-01T06:14:43;12.63;;;6.68;;
49548;SDS011;35450;44.518;7.466;2023-02-01T06:17:48;14.13;;;4.88;;
49548;SDS011;35450;44.518;7.466;2023-02-01T06:20:56;11.57;;;5.57;;
49548;SDS011;35450;44.518;7.466;2023-02-01T06:24:03;16.88;;;6.93;;
49548;SDS011;35450;44.518;7.466;2023-02-01T06:27:07;15.40;;;6.65;;
49548;SDS011;35450;44.518;7.466;2023-02-01T06:30:12;13.77;;;6.50;;
49548;SDS011;35450;44.518;7.466;2023-02-01T06:33:17;15.27;;;7.15;;
49548;SDS011;35450;44.518;7.466;2023-02-01T06:36:21;22.15;;;8.32;;
49548;SDS011;35450;44.518;7.466;2023-02-01T06:39:25;21.77;;;9.25;;
49548;SDS011;35450;44.518;7.466;2023-02-01T06:42:30;17.30;;;6.35;;
49548;SDS011;35450;44.518;7.466;2023-02-01T06:45:34;23.15;;;8.85;;
49548;SDS011;35450;44.518;7.466;2023-02-01T06:48:39;30.95;;;10.52;;
49548;SDS011;35450;44.518;7.466;2023-02-01T06:51:43;37.03;;;15.52;;
49548;SDS011;35450;44.518;7.466;2023-02-01T06:54:47;31.45;;;14.30;;
49548;SDS011;35450;44.518;7.466;2023-02-01T06:57:54;22.92;;;10.50;;
49548;SDS011;35450;44.518;7.466;2023-02-01T07:01:05;25.92;;;10.65;;
49548;SDS011;35450;44.518;7.466;2023-02-01T07:04:11;16.23;;;7.60;;
49548;SDS011;35450;44.518;7.466;2023-02-01T07:07:15;13.70;;;6.85;;
49548;SDS011;35450;44.518;7.466;2023-02-01T07:10:20;16.98;;;7.43;;
49548;SDS011;35450;44.518;7.466;2023-02-01T07:13:24;20.73;;;7.20;;
49548;SDS011;35450;44.518;7.466;2023-02-01T07:16:28;14.32;;;6.25;;
49548;SDS011;35450;44.518;7.466;2023-02-01T07:19:33;18.52;;;7.78;;
49548;SDS011;35450;44.518;7.466;2023-02-01T07:22:37;15.25;;;9.20;;
49548;SDS011;35450;44.518;7.466;2023-02-01T07:25:41;26.55;;;10.18;;
49548;SDS011;35450;44.518;7.466;2023-02-01T07:28:45;26.38;;;10.27;;
49548;SDS011;35450;44.518;7.466;2023-02-01T07:31:49;12.85;;;7.35;;
49548;SDS011;35450;44.518;7.466;2023-02-01T07:34:53;12.02;;;6.05;;
49548;SDS011;35450;44.518;7.466;2023-02-01T07:37:57;17.10;;;8.43;;
49548;SDS011;35450;44.518;7.466;2023-02-01T07:41:03;15.68;;;8.75;;
49548;SDS011;35450;44.518;7.466;2023-02-01T07:44:08;23.92;;;14.95;;
49548;SDS011;35450;44.518;7.466;2023-02-01T07:47:12;25.35;;;13.93;;
49548;SDS011;35450;44.518;7.466;2023-02-01T07:50:16;44.08;;;21.63;;
49548;SDS011;35450;44.518;7.466;2023-02-01T07:53:20;41.47;;;20.90;;
49548;SDS011;35450;44.518;7.466;2023-02-01T07:56:24;28.42;;;14.57;;
49548;SDS011;35450;44.518;7.466;2023-02-01T07:59:28;30.02;;;14.90;;
49548;SDS011;35450;44.518;7.466;2023-02-01T08:02:32;30.15;;;15.05;;
49548;SDS011;35450;44.518;7.466;2023-02-01T08:05:36;33.67;;;18.60;;
49548;SDS011;35450;44.518;7.466;2023-02-01T08:08:40;32.85;;;18.92;;
49548;SDS011;35450;44.518;7.466;2023-02-01T08:11:46;38.40;;;19.50;;
49548;SDS011;35450;44.518;7.466;2023-02-01T08:14:51;35.38;;;19.25;;
49548;SDS011;35450;44.518;7.466;2023-02-01T08:17:55;41.20;;;15.13;;
49548;SDS011;35450;44.518;7.466;2023-02-01T08:21:19;27.58;;;13.25;;
49548;SDS011;35450;44.518;7.466;2023-02-01T08:24:28;20.45;;;10.18;;
49548;SDS011;35450;44.518;7.466;2023-02-01T08:27:32;16.70;;;8.07;;
49548;SDS011;35450;44.518;7.466;2023-02-01T08:30:37;15.23;;;7.18;;
49548;SDS011;35450;44.518;7.466;2023-02-01T08:33:42;14.60;;;6.72;;
49548;SDS011;35450;44.518;7.466;2023-02-01T08:36:47;13.95;;;5.22;;
49548;SDS011;35450;44.518;7.466;2023-02-01T08:39:51;14.68;;;6.25;;
49548;SDS011;35450;44.518;7.466;2023-02-01T08:42:55;11.45;;;4.97;;
49548;SDS011;35450;44.518;7.466;2023-02-01T08:46:00;10.85;;;5.90;;
49548;SDS011;35450;44.518;7.466;2023-02-01T08:49:05;12.90;;;5.22;;
49548;SDS011;35450;44.518;7.466;2023-02-01T08:52:09;9.52;;;4.63;;
49548;SDS011;35450;44.518;7.466;2023-02-01T08:55:13;14.73;;;4.80;;
49548;SDS011;35450;44.518;7.466;2023-02-01T08:58:18;10.68;;;4.40;;
49548;SDS011;35450;44.518;7.466;2023-02-01T09:01:22;9.48;;;4.80;;
49548;SDS011;35450;44.518;7.466;2023-02-01T09:04:26;10.02;;;4.38;;
49548;SDS011;35450;44.518;7.466;2023-02-01T09:07:31;10.10;;;4.97;;
49548;SDS011;35450;44.518;7.466;2023-02-01T09:10:36;10.15;;;5.40;;
49548;SDS011;35450;44.518;7.466;2023-02-01T09:13:40;10.88;;;5.53;;
49548;SDS011;35450;44.518;7.466;2023-02-01T09:16:45;10.43;;;5.22;;
49548;SDS011;35450;44.518;7.466;2023-02-01T09:19:49;10.43;;;5.22;;
49548;SDS011;35450;44.518;7.466;2023-02-01T09:22:54;11.63;;;4.88;;
49548;SDS011;35450;44.518;7.466;2023-02-01T09:25:59;8.18;;;4.65;;
49548;SDS011;35450;44.518;7.466;2023-02-01T09:29:04;17.02;;;5.22;;
49548;SDS011;35450;44.518;7.466;2023-02-01T09:32:15;9.68;;;4.57;;
49548;SDS011;35450;44.518;7.466;2023-02-01T09:35:20;11.07;;;5.07;;
49548;SDS011;35450;44.518;7.466;2023-02-01T09:38:24;9.38;;;4.63;;
49548;SDS011;35450;44.518;7.466;2023-02-01T09:45:20;14.10;;;5.57;;
49548;SDS011;35450;44.518;7.466;2023-02-01T09:48:29;15.82;;;6.25;;
49548;SDS011;35450;44.518;7.466;2023-02-01T09:51:37;9.57;;;5.07;;
49548;SDS011;35450;44.518;7.466;2023-02-01T09:54:52;12.13;;;5.90;;
49548;SDS011;35450;44.518;7.466;2023-02-01T10:01:24;10.82;;;5.80;;
49548;SDS011;35450;44.518;7.466;2023-02-01T10:04:30;11.35;;;5.68;;
49548;SDS011;35450;44.518;7.466;2023-02-01T10:10:49;9.57;;;5.50;;
49548;SDS011;35450;44.518;7.466;2023-02-01T10:20:19;10.68;;;5.10;;
49548;SDS011;35450;44.518;7.466;2023-02-01T10:27:43;11.95;;;4.70;;
49548;SDS011;35450;44.518;7.466;2023-02-01T10:30:23;8.57;;;4.93;;
49548;SDS011;35450;44.518;7.466;2023-02-01T10:33:34;14.88;;;7.05;;
49548;SDS011;35450;44.518;7.466;2023-02-01T10:37:29;22.45;;;7.05;;
49548;SDS011;35450;44.518;7.466;2023-02-01T10:40:25;18.67;;;6.93;;
49548;SDS011;35450;44.518;7.466;2023-02-01T10:43:29;14.88;;;6.60;;
49548;SDS011;35450;44.518;7.466;2023-02-01T10:46:35;18.25;;;7.25;;
49548;SDS011;35450;44.518;7.466;2023-02-01T10:49:41;20.15;;;7.32;;
49548;SDS011;35450;44.518;7.466;2023-02-01T10:56:25;17.60;;;6.60;;
49548;SDS011;35450;44.518;7.466;2023-02-01T10:59:30;18.17;;;6.72;;
49548;SDS011;35450;44.518;7.466;2023-02-01T11:02:36;12.80;;;6.43;;
49548;SDS011;35450;44.518;7.466;2023-02-01T11:05:44;13.25;;;6.88;;
49548;SDS011;35450;44.518;7.466;2023-02-01T11:08:50;9.18;;;5.30;;
49548;SDS011;35450;44.518;7.466;2023-02-01T11:11:59;14.63;;;5.78;;
49548;SDS011;35450;44.518;7.466;2023-02-01T11:18:27;13.25;;;5.57;;
49548;SDS011;35450;44.518;7.466;2023-02-01T11:21:33;7.75;;;4.95;;
49548;SDS011;35450;44.518;7.466;2023-02-01T11:24:38;11.90;;;5.28;;
49548;SDS011;35450;44.518;7.466;2023-02-01T11:27:44;10.73;;;5.38;;
49548;SDS011;35450;44.518;7.466;2023-02-01T11:30:48;12.43;;;5.97;;
49548;SDS011;35450;44.518;7.466;2023-02-01T11:33:58;13.52;;;5.85;;
49548;SDS011;35450;44.518;7.466;2023-02-01T11:37:13;8.65;;;5.18;;
49548;SDS011;35450;44.518;7.466;2023-02-01T11:40:37;10.15;;;5.07;;
49548;SDS011;35450;44.518;7.466;2023-02-01T11:43:52;11.30;;;4.50;;
49548;SDS011;35450;44.518;7.466;2023-02-01T11:47:12;12.07;;;5.35;;
49548;SDS011;35450;44.518;7.466;2023-02-01T11:50:46;15.48;;;5.10;;
49548;SDS011;35450;44.518;7.466;2023-02-01T12:01:15;12.00;;;6.03;;
49548;SDS011;35450;44.518;7.466;2023-02-01T12:11:43;11.95;;;7.13;;
49548;SDS011;35450;44.518;7.466;2023-02-01T12:18:35;12.95;;;6.63;;
49548;SDS011;35450;44.518;7.466;2023-02-01T12:29:07;14.15;;;7.35;;
49548;SDS011;35450;44.518;7.466;2023-02-01T12:42:38;11.50;;;6.50;;
49548;SDS011;35450;44.518;7.466;2023-02-01T12:45:55;11.05;;;6.47;;
49548;SDS011;35450;44.518;7.466;2023-02-01T12:52:26;12.32;;;7.15;;
49548;SDS011;35450;44.518;7.466;2023-02-01T12:55:41;10.70;;;6.70;;
49548;SDS011;35450;44.518;7.466;2023-02-01T12:58:52;13.32;;;7.15;;
49548;SDS011;35450;44.518;7.466;2023-02-01T13:02:16;19.05;;;7.05;;
49548;SDS011;35450;44.518;7.466;2023-02-01T13:05:38;12.43;;;6.90;;
49548;SDS011;35450;44.518;7.466;2023-02-01T13:12:12;16.55;;;7.68;;
49548;SDS011;35450;44.518;7.466;2023-02-01T13:15:25;13.05;;;8.43;;
49548;SDS011;35450;44.518;7.466;2023-02-01T13:18:47;14.48;;;7.70;;
49548;SDS011;35450;44.518;7.466;2023-02-01T13:21:58;18.17;;;7.70;;
49548;SDS011;35450;44.518;7.466;2023-02-01T13:28:15;12.35;;;6.20;;
49548;SDS011;35450;44.518;7.466;2023-02-01T13:31:33;13.10;;;5.43;;
49548;SDS011;35450;44.518;7.466;2023-02-01T13:41:32;11.90;;;6.30;;
49548;SDS011;35450;44.518;7.466;2023-02-01T13:44:52;16.90;;;7.75;;
49548;SDS011;35450;44.518;7.466;2023-02-01T13:48:04;10.10;;;6.05;;
49548;SDS011;35450;44.518;7.466;2023-02-01T13:51:10;13.00;;;6.13;;
49548;SDS011;35450;44.518;7.466;2023-02-01T13:54:33;14.27;;;7.70;;
49548;SDS011;35450;44.518;7.466;2023-02-01T13:57:41;9.80;;;5.50;;
49548;SDS011;35450;44.518;7.466;2023-02-01T14:00:48;15.25;;;6.93;;
49548;SDS011;35450;44.518;7.466;2023-02-01T14:03:55;14.35;;;5.25;;
49548;SDS011;35450;44.518;7.466;2023-02-01T14:07:01;9.88;;;4.15;;
49548;SDS011;35450;44.518;7.466;2023-02-01T14:13:47;11.85;;;5.05;;
49548;SDS011;35450;44.518;7.466;2023-02-01T14:23:40;7.75;;;4.97;;
49548;SDS011;35450;44.518;7.466;2023-02-01T14:26:47;5.93;;;4.20;;
49548;SDS011;35450;44.518;7.466;2023-02-01T14:29:57;6.22;;;3.85;;
49548;SDS011;35450;44.518;7.466;2023-02-01T14:36:42;8.82;;;3.70;;
49548;SDS011;35450;44.518;7.466;2023-02-01T14:39:50;9.02;;;4.30;;
49548;SDS011;35450;44.518;7.466;2023-02-01T14:42:56;9.13;;;3.88;;
49548;SDS011;35450;44.518;7.466;2023-02-01T14:46:00;6.15;;;3.53;;
49548;SDS011;35450;44.518;7.466;2023-02-01T14:49:05;11.23;;;3.92;;
49548;SDS011;35450;44.518;7.466;2023-02-01T14:52:11;5.47;;;3.97;;
49548;SDS011;35450;44.518;7.466;2023-02-01T14:55:34;10.30;;;4.85;;
49548;SDS011;35450;44.518;7.466;2023-02-01T14:59:23;7.65;;;4.13;;
49548;SDS011;35450;44.518;7.466;2023-02-01T15:02:25;7.35;;;4.15;;
49548;SDS011;35450;44.518;7.466;2023-02-01T15:05:31;16.20;;;5.28;;
49548;SDS011;35450;44.518;7.466;2023-02-01T15:08:37;11.93;;;4.78;;
49548;SDS011;35450;44.518;7.466;2023-02-01T15:18:16;11.13;;;5.35;;
49548;SDS011;35450;44.518;7.466;2023-02-01T15:21:22;10.43;;;5.35;;
49548;SDS011;35450;44.518;7.466;2023-02-01T15:24:29;7.93;;;5.10;;
49548;SDS011;35450;44.518;7.466;2023-02-01T15:27:33;11.65;;;5.03;;
49548;SDS011;35450;44.518;7.466;2023-02-01T15:30:38;11.82;;;5.05;;
49548;SDS011;35450;44.518;7.466;2023-02-01T15:33:42;9.93;;;4.85;;
49548;SDS011;35450;44.518;7.466;2023-02-01T15:37:04;21.33;;;7.85;;
49548;SDS011;35450;44.518;7.466;2023-02-01T15:43:13;17.83;;;5.80;;
49548;SDS011;35450;44.518;7.466;2023-02-01T15:46:18;19.15;;;8.65;;
49548;SDS011;35450;44.518;7.466;2023-02-01T15:49:29;24.55;;;8.35;;
49548;SDS011;35450;44.518;7.466;2023-02-01T15:52:37;21.15;;;6.10;;
49548;SDS011;35450;44.518;7.466;2023-02-01T15:55:43;23.83;;;6.57;;
49548;SDS011;35450;44.518;7.466;2023-02-01T15:58:50;22.63;;;5.78;;
49548;SDS011;35450;44.518;7.466;2023-02-01T16:02:00;19.48;;;5.57;;
49548;SDS011;35450;44.518;7.466;2023-02-01T16:05:06;14.40;;;6.53;;
49548;SDS011;35450;44.518;7.466;2023-02-01T16:08:31;10.82;;;5.70;;
49548;SDS011;35450;44.518;7.466;2023-02-01T16:11:55;11.57;;;6.00;;
49548;SDS011;35450;44.518;7.466;2023-02-01T16:15:00;15.93;;;6.22;;
49548;SDS011;35450;44.518;7.466;2023-02-01T16:18:06;26.48;;;7.35;;
49548;SDS011;35450;44.518;7.466;2023-02-01T16:21:12;27.08;;;6.72;;
49548;SDS011;35450;44.518;7.466;2023-02-01T16:24:18;9.30;;;5.97;;
49548;SDS011;35450;44.518;7.466;2023-02-01T16:27:22;15.93;;;5.97;;
49548;SDS011;35450;44.518;7.466;2023-02-01T16:30:26;10.25;;;5.78;;
49548;SDS011;35450;44.518;7.466;2023-02-01T16:33:30;10.65;;;6.47;;
49548;SDS011;35450;44.518;7.466;2023-02-01T16:36:34;15.63;;;7.22;;
49548;SDS011;35450;44.518;7.466;2023-02-01T16:39:39;29.17;;;12.65;;
49548;SDS011;35450;44.518;7.466;2023-02-01T16:42:43;36.40;;;20.10;;
49548;SDS011;35450;44.518;7.466;2023-02-01T16:45:49;27.02;;;7.10;;
49548;SDS011;35450;44.518;7.466;2023-02-01T16:48:56;15.10;;;6.90;;
49548;SDS011;35450;44.518;7.466;2023-02-01T16:52:02;12.10;;;6.90;;
49548;SDS011;35450;44.518;7.466;2023-02-01T16:55:13;19.88;;;6.03;;
49548;SDS011;35450;44.518;7.466;2023-02-01T16:58:20;15.93;;;5.82;;
49548;SDS011;35450;44.518;7.466;2023-02-01T17:01:24;10.63;;;5.32;;
49548;SDS011;35450;44.518;7.466;2023-02-01T17:04:29;13.50;;;6.15;;
49548;SDS011;35450;44.518;7.466;2023-02-01T17:07:33;10.38;;;4.93;;
49548;SDS011;35450;44.518;7.466;2023-02-01T17:10:37;9.50;;;5.55;;
49548;SDS011;35450;44.518;7.466;2023-02-01T17:13:41;15.70;;;5.65;;
49548;SDS011;35450;44.518;7.466;2023-02-01T17:16:46;11.57;;;6.25;;
49548;SDS011;35450;44.518;7.466;2023-02-01T17:19:52;11.50;;;6.57;;
49548;SDS011;35450;44.518;7.466;2023-02-01T17:22:56;18.30;;;7.75;;
49548;SDS011;35450;44.518;7.466;2023-02-01T17:26:00;34.20;;;17.17;;
49548;SDS011;35450;44.518;7.466;2023-02-01T17:29:06;18.58;;;11.63;;
49548;SDS011;35450;44.518;7.466;2023-02-01T17:32:13;38.28;;;24.27;;
49548;SDS011;35450;44.518;7.466;2023-02-01T17:35:22;24.77;;;13.05;;
49548;SDS011;35450;44.518;7.466;2023-02-01T17:38:28;15.38;;;7.90;;
49548;SDS011;35450;44.518;7.466;2023-02-01T17:41:33;15.88;;;8.38;;
49548;SDS011;35450;44.518;7.466;2023-02-01T17:44:38;42.15;;;19.38;;
49548;SDS011;35450;44.518;7.466;2023-02-01T17:47:42;51.72;;;23.45;;
49548;SDS011;35450;44.518;7.466;2023-02-01T17:50:47;40.70;;;15.93;;
49548;SDS011;35450;44.518;7.466;2023-02-01T17:54:01;109.10;;;45.65;;
49548;SDS011;35450;44.518;7.466;2023-02-01T17:57:09;21.65;;;10.05;;
49548;SDS011;35450;44.518;7.466;2023-02-01T18:00:15;16.50;;;8.23;;
49548;SDS011;35450;44.518;7.466;2023-02-01T18:06:28;96.75;;;37.63;;
49548;SDS011;35450;44.518;7.466;2023-02-01T18:09:37;110.63;;;43.92;;
49548;SDS011;35450;44.518;7.466;2023-02-01T18:12:41;42.00;;;18.75;;
49548;SDS011;35450;44.518;7.466;2023-02-01T18:15:45;13.98;;;7.60;;
49548;SDS011;35450;44.518;7.466;2023-02-01T18:18:49;16.65;;;7.70;;
49548;SDS011;35450;44.518;7.466;2023-02-01T18:21:54;19.20;;;8.35;;
49548;SDS011;35450;44.518;7.466;2023-02-01T18:25:00;13.05;;;5.90;;
49548;SDS011;35450;44.518;7.466;2023-02-01T18:28:04;10.80;;;6.65;;
49548;SDS011;35450;44.518;7.466;2023-02-01T18:31:16;15.68;;;9.30;;
49548;SDS011;35450;44.518;7.466;2023-02-01T18:34:24;32.85;;;17.80;;
49548;SDS011;35450;44.518;7.466;2023-02-01T18:37:29;27.67;;;14.57;;
49548;SDS011;35450;44.518;7.466;2023-02-01T18:40:45;13.95;;;7.05;;
49548;SDS011;35450;44.518;7.466;2023-02-01T18:43:50;18.38;;;10.05;;
49548;SDS011;35450;44.518;7.466;2023-02-01T18:46:55;20.77;;;12.63;;
49548;SDS011;35450;44.518;7.466;2023-02-01T18:49:59;37.58;;;20.00;;
49548;SDS011;35450;44.518;7.466;2023-02-01T18:53:04;27.30;;;16.52;;
49548;SDS011;35450;44.518;7.466;2023-02-01T18:56:11;65.40;;;34.33;;
49548;SDS011;35450;44.518;7.466;2023-02-01T18:59:16;44.67;;;24.77;;
49548;SDS011;35450;44.518;7.466;2023-02-01T19:02:20;18.40;;;10.75;;
49548;SDS011;35450;44.518;7.466;2023-02-01T19:05:24;22.50;;;11.25;;
49548;SDS011;35450;44.518;7.466;2023-02-01T19:08:28;42.03;;;21.58;;
49548;SDS011;35450;44.518;7.466;2023-02-01T19:11:32;43.25;;;23.38;;
49548;SDS011;35450;44.518;7.466;2023-02-01T19:14:36;39.35;;;20.92;;
49548;SDS011;35450;44.518;7.466;2023-02-01T19:17:42;42.15;;;22.35;;
49548;SDS011;35450;44.518;7.466;2023-02-01T19:20:50;39.63;;;20.48;;
49548;SDS011;35450;44.518;7.466;2023-02-01T19:23:56;27.67;;;17.73;;
49548;SDS011;35450;44.518;7.466;2023-02-01T19:27:00;22.00;;;12.40;;
49548;SDS011;35450;44.518;7.466;2023-02-01T19:30:05;18.25;;;9.07;;
49548;SDS011;35450;44.518;7.466;2023-02-01T19:33:09;16.92;;;8.95;;
49548;SDS011;35450;44.518;7.466;2023-02-01T19:36:13;18.65;;;10.45;;
49548;SDS011;35450;44.518;7.466;2023-02-01T19:39:17;19.88;;;10.02;;
49548;SDS011;35450;44.518;7.466;2023-02-01T19:42:26;19.80;;;11.00;;
49548;SDS011;35450;44.518;7.466;2023-02-01T19:45:30;16.92;;;9.60;;
49548;SDS011;35450;44.518;7.466;2023-02-01T19:48:34;10.60;;;6.15;;
49548;SDS011;35450;44.518;7.466;2023-02-01T19:51:38;22.48;;;10.32;;
49548;SDS011;35450;44.518;7.466;2023-02-01T19:54:43;10.05;;;6.70;;
49548;SDS011;35450;44.518;7.466;2023-02-01T19:57:47;60.92;;;27.83;;
49548;SDS011;35450;44.518;7.466;2023-02-01T20:00:55;76.07;;;34.75;;
49548;SDS011;35450;44.518;7.466;2023-02-01T20:03:59;59.42;;;28.85;;
49548;SDS011;35450;44.518;7.466;2023-02-01T20:07:07;24.30;;;13.25;;
49548;SDS011;35450;44.518;7.466;2023-02-01T20:10:14;27.05;;;13.73;;
49548;SDS011;35450;44.518;7.466;2023-02-01T20:13:18;28.42;;;13.52;;
49548;SDS011;35450;44.518;7.466;2023-02-01T20:16:22;32.47;;;15.07;;
49548;SDS011;35450;44.518;7.466;2023-02-01T20:19:26;25.17;;;14.10;;
49548;SDS011;35450;44.518;7.466;2023-02-01T20:22:30;20.27;;;11.65;;
49548;SDS011;35450;44.518;7.466;2023-02-01T20:25:35;25.83;;;10.07;;
49548;SDS011;35450;44.518;7.466;2023-02-01T20:28:39;30.48;;;18.17;;
49548;SDS011;35450;44.518;7.466;2023-02-01T20:31:44;34.08;;;22.38;;
49548;SDS011;35450;44.518;7.466;2023-02-01T20:34:48;31.65;;;18.35;;
49548;SDS011;35450;44.518;7.466;2023-02-01T20:37:55;30.17;;;16.80;;
49548;SDS011;35450;44.518;7.466;2023-02-01T20:41:04;38.63;;;21.02;;
49548;SDS011;35450;44.518;7.466;2023-02-01T20:44:09;44.72;;;22.48;;
49548;SDS011;35450;44.518;7.466;2023-02-01T20:47:13;44.67;;;25.88;;
49548;SDS011;35450;44.518;7.466;2023-02-01T20:50:18;50.22;;;32.25;;
49548;SDS011;35450;44.518;7.466;2023-02-01T20:53:22;45.17;;;28.25;;
49548;SDS011;35450;44.518;7.466;2023-02-01T20:56:26;18.80;;;10.50;;
49548;SDS011;35450;44.518;7.466;2023-02-01T20:59:30;17.90;;;10.20;;